Time;durP1;ratioP1;P1;durP2;ratioP2;P2;SDS_P1;SDS_P2;PMS_P1;PMS_P2;Temp;Humidity;BMP_temperature;BMP_pressure;BME280_temperature;BME280_humidity;BME280_pressure;Samples;Min_cycle;Max_cycle;Signal;HPM_P1;HPM_P2
2021/05/29 00:01:25;;;;;;;3.03;1.42;;;8.50;99.90;;;;;;5100922;28;20046;-64
2021/05/29 00:03:53;;;;;;;4.30;1.17;;;8.40;99.90;;;;;;5101230;28;20065;-64
2021/05/29 00:06:20;;;;;;;4.35;1.60;;;8.30;99.90;;;;;;5100476;28;20504;-64
2021/05/29 00:08:48;;;;;;;5.20;1.33;;;8.20;99.90;;;;;;5100422;28;20024;-64
2021/05/29 00:11:15;;;;;;;5.07;1.42;;;8.10;99.90;;;;;;5098552;28;20058;-63
2021/05/29 00:13:44;;;;;;;3.45;1.52;;;8.10;99.90;;;;;;5098597;28;20028;-64
2021/05/29 00:16:12;;;;;;;6.25;1.50;;;8.00;99.90;;;;;;5099428;28;20323;-64
2021/05/29 00:18:39;;;;;;;3.50;1.70;;;8.00;99.90;;;;;;5099949;28;20024;-64
2021/05/29 00:21:07;;;;;;;4.40;1.80;;;8.00;99.90;;;;;;5098164;28;20028;-63
2021/05/29 00:23:36;;;;;;;2.67;1.55;;;8.00;99.90;;;;;;5099346;28;20028;-64
2021/05/29 00:26:04;;;;;;;7.10;2.40;;;8.00;99.90;;;;;;5099337;28;20025;-64
2021/05/29 00:28:32;;;;;;;7.68;2.25;;;8.00;99.90;;;;;;5098344;28;20048;-64
2021/05/29 00:31:00;;;;;;;4.68;1.40;;;7.90;99.90;;;;;;5099861;28;20032;-64
2021/05/29 00:33:28;;;;;;;38.42;3.15;;;7.90;99.90;;;;;;5100133;28;20398;-64
2021/05/29 00:35:56;;;;;;;20.60;2.10;;;7.80;99.90;;;;;;5099955;28;20103;-63
2021/05/29 00:38:23;;;;;;;35.72;2.05;;;7.70;99.90;;;;;;5099234;28;20024;-64
2021/05/29 00:40:50;;;;;;;7.97;1.58;;;7.60;99.90;;;;;;5099968;28;20036;-63
2021/05/29 00:43:18;;;;;;;7.47;1.42;;;7.50;99.90;;;;;;5099327;28;20104;-64
2021/05/29 00:45:45;;;;;;;4.60;1.42;;;7.50;99.90;;;;;;5100338;28;20024;-63
2021/05/29 00:48:13;;;;;;;4.75;2.75;;;7.40;99.90;;;;;;5099966;28;20027;-64
2021/05/29 00:50:49;;;;;;;5.57;1.77;;;7.40;99.90;;;;;;5099369;28;20077;-64
2021/05/29 00:53:18;;;;;;;8.05;1.50;;;7.30;99.90;;;;;;5098838;28;20012;-64
2021/05/29 00:55:46;;;;;;;5.50;1.60;;;7.30;99.90;;;;;;5098745;28;20031;-64
2021/05/29 00:58:15;;;;;;;3.90;1.50;;;7.30;99.90;;;;;;5098854;28;20020;-64
2021/05/29 01:00:42;;;;;;;4.05;1.98;;;7.40;99.90;;;;;;5112764;28;20046;-63
2021/05/29 01:03:10;;;;;;;2.95;1.30;;;7.40;99.90;;;;;;5084301;28;20026;-63
2021/05/29 01:05:39;;;;;;;5.22;1.30;;;7.40;99.90;;;;;;5119020;28;20077;-63
2021/05/29 01:08:06;;;;;;;5.30;1.20;;;7.40;99.90;;;;;;5101017;28;20024;-63
2021/05/29 01:10:35;;;;;;;39.42;2.75;;;7.30;99.90;;;;;;5100796;28;20319;-64
2021/05/29 01:13:04;;;;;;;62.97;3.28;;;7.30;99.90;;;;;;5119654;28;20089;-63
2021/05/29 01:15:36;;;;;;;32.13;2.60;;;7.20;99.90;;;;;;5119622;28;20428;-63
2021/05/29 01:18:06;;;;;;;24.67;2.38;;;7.20;99.90;;;;;;5119670;28;20077;-63
2021/05/29 01:20:35;;;;;;;48.53;3.83;;;7.10;99.90;;;;;;5120211;28;20019;-63
2021/05/29 01:23:03;;;;;;;8.63;1.63;;;7.20;99.90;;;;;;5101445;28;20529;-63
2021/05/29 01:25:35;;;;;;;3.67;1.70;;;7.20;99.90;;;;;;5101518;28;20079;-64
2021/05/29 01:28:12;;;;;;;3.00;1.70;;;7.30;99.90;;;;;;5119540;28;20026;-64
2021/05/29 01:30:59;;;;;;;3.10;1.90;;;7.40;99.90;;;;;;5118546;28;20024;-63
2021/05/29 01:33:33;;;;;;;3.08;1.73;;;7.50;99.90;;;;;;5118466;28;20020;-63
2021/05/29 01:36:08;;;;;;;3.33;1.40;;;7.50;99.90;;;;;;5100284;28;20426;-64
2021/05/29 01:38:40;;;;;;;3.55;1.77;;;7.60;99.90;;;;;;5118422;28;20030;-63
2021/05/29 01:41:14;;;;;;;3.58;1.73;;;7.60;99.90;;;;;;5118157;28;20026;-64
2021/05/29 01:43:43;;;;;;;7.78;2.38;;;7.60;99.90;;;;;;5100325;28;20023;-64
2021/05/29 01:46:12;;;;;;;9.13;1.98;;;7.70;99.90;;;;;;5118026;28;20030;-64
2021/05/29 01:48:43;;;;;;;6.78;2.20;;;7.70;99.90;;;;;;5100021;28;20020;-64
2021/05/29 01:51:17;;;;;;;4.07;1.67;;;7.80;99.90;;;;;;5118401;28;20031;-64
2021/05/29 01:53:44;;;;;;;2.92;1.80;;;7.90;99.90;;;;;;5101213;28;20296;-63
2021/05/29 01:56:13;;;;;;;5.43;1.98;;;7.90;99.90;;;;;;5118561;28;20024;-63
2021/05/29 01:58:41;;;;;;;9.10;1.95;;;8.00;99.90;;;;;;5118935;28;20027;-64
2021/05/29 02:01:14;;;;;;;6.40;1.90;;;8.00;99.90;;;;;;5118412;28;20312;-63
2021/05/29 02:03:45;;;;;;;10.57;2.35;;;8.00;99.90;;;;;;5118826;28;20022;-64
2021/05/29 02:06:14;;;;;;;3.47;2.05;;;8.00;99.90;;;;;;5118529;28;20053;-63
2021/05/29 02:08:42;;;;;;;4.28;2.20;;;8.10;99.90;;;;;;5118756;28;20020;-63
2021/05/29 02:11:10;;;;;;;8.20;2.30;;;8.10;99.90;;;;;;5118145;28;20031;-64
2021/05/29 02:13:42;;;;;;;6.40;1.85;;;8.10;99.90;;;;;;5117740;28;20031;-64
2021/05/29 02:16:11;;;;;;;6.47;2.55;;;8.10;99.90;;;;;;5117503;28;20024;-63
2021/05/29 02:18:40;;;;;;;2.90;1.77;;;8.20;99.90;;;;;;5117496;28;20023;-63
2021/05/29 02:21:13;;;;;;;7.20;2.13;;;8.10;99.90;;;;;;5117169;28;20023;-64
2021/05/29 02:23:42;;;;;;;6.97;2.38;;;8.10;99.90;;;;;;5100409;28;20033;-64
2021/05/29 02:26:13;;;;;;;6.95;2.00;;;8.00;99.90;;;;;;5117323;28;20023;-63
2021/05/29 02:28:43;;;;;;;10.93;2.10;;;8.00;99.90;;;;;;5099284;28;20015;-64
2021/05/29 02:31:12;;;;;;;4.45;2.13;;;8.00;99.90;;;;;;5099218;28;20415;-64
2021/05/29 02:33:40;;;;;;;4.53;1.55;;;8.00;99.90;;;;;;5117775;28;20042;-64
2021/05/29 02:36:08;;;;;;;3.72;2.50;;;8.00;99.90;;;;;;5118052;28;20327;-64
2021/05/29 02:38:36;;;;;;;5.25;2.50;;;8.00;99.90;;;;;;5118173;28;20042;-64
2021/05/29 02:41:09;;;;;;;5.60;3.10;;;7.90;99.90;;;;;;5118762;28;20024;-63
2021/05/29 02:43:37;;;;;;;4.50;2.25;;;7.90;99.90;;;;;;5118657;28;20117;-63
2021/05/29 02:46:05;;;;;;;7.85;3.42;;;7.90;99.90;;;;;;5117989;28;20027;-64
2021/05/29 02:48:32;;;;;;;4.93;2.83;;;8.00;99.90;;;;;;5118154;28;20028;-64
2021/05/29 02:51:00;;;;;;;5.70;2.90;;;8.00;99.90;;;;;;5118400;28;20043;-64
2021/05/29 02:53:27;;;;;;;7.35;3.65;;;8.10;99.90;;;;;;5117140;28;20101;-64
2021/05/29 02:55:55;;;;;;;6.88;3.58;;;8.10;99.90;;;;;;5098921;28;20077;-64
2021/05/29 02:58:24;;;;;;;10.35;4.43;;;8.20;99.90;;;;;;5117000;28;20030;-64
2021/05/29 03:00:52;;;;;;;11.50;4.75;;;8.20;99.90;;;;;;5116490;28;20346;-64
2021/05/29 03:03:20;;;;;;;9.02;4.45;;;8.20;99.90;;;;;;5117174;28;20055;-64
2021/05/29 03:05:48;;;;;;;9.60;5.50;;;8.20;99.90;;;;;;5119511;28;20016;-63
2021/05/29 03:08:17;;;;;;;13.90;5.50;;;8.30;99.90;;;;;;5106550;28;20015;-64
2021/05/29 03:10:46;;;;;;;10.43;5.60;;;8.40;99.90;;;;;;5123612;28;20019;-64
2021/05/29 03:13:14;;;;;;;9.13;5.47;;;8.40;99.90;;;;;;5123528;28;20475;-64
2021/05/29 03:15:42;;;;;;;10.88;5.82;;;8.50;99.90;;;;;;5106431;28;20115;-63
2021/05/29 03:18:10;;;;;;;9.90;6.10;;;8.50;99.90;;;;;;5124790;28;20026;-63
2021/05/29 03:20:38;;;;;;;12.70;5.90;;;8.50;99.90;;;;;;5124363;27;20035;-64
2021/05/29 03:23:06;;;;;;;11.63;5.75;;;8.60;99.90;;;;;;5106418;28;20020;-63
2021/05/29 03:25:34;;;;;;;16.40;7.35;;;8.70;99.90;;;;;;5124794;28;20047;-63
2021/05/29 03:28:03;;;;;;;15.80;6.63;;;8.70;99.90;;;;;;5124551;28;20423;-63
2021/05/29 03:30:31;;;;;;;19.48;9.60;;;8.70;99.90;;;;;;5125076;28;20079;-64
2021/05/29 03:32:59;;;;;;;16.88;8.60;;;8.80;99.90;;;;;;5124410;28;20020;-64
2021/05/29 03:35:27;;;;;;;16.58;8.55;;;8.80;99.90;;;;;;5124030;28;20411;-63
2021/05/29 03:37:55;;;;;;;17.50;8.05;;;8.90;99.90;;;;;;5123832;28;20024;-64
2021/05/29 03:40:23;;;;;;;13.00;7.60;;;8.90;99.90;;;;;;5123422;28;20016;-64
2021/05/29 03:42:51;;;;;;;15.02;7.30;;;9.00;99.90;;;;;;5123297;28;20049;-64
2021/05/29 03:45:19;;;;;;;15.13;7.13;;;9.00;99.90;;;;;;5105217;28;20319;-64
2021/05/29 03:47:47;;;;;;;32.58;10.38;;;9.00;99.90;;;;;;5123324;28;20019;-64
2021/05/29 03:50:17;;;;;;;16.25;8.93;;;9.10;99.90;;;;;;5123592;28;20015;-64
2021/05/29 03:52:45;;;;;;;20.73;10.13;;;9.10;99.90;;;;;;5123268;28;20099;-63
2021/05/29 03:55:14;;;;;;;21.80;11.68;;;9.10;99.90;;;;;;5123804;28;20016;-64
2021/05/29 03:57:46;;;;;;;22.85;10.15;;;9.20;99.90;;;;;;5124149;28;20355;-64
2021/05/29 04:00:17;;;;;;;23.60;11.43;;;9.30;99.90;;;;;;5124169;28;20343;-64
2021/05/29 04:02:46;;;;;;;24.15;11.80;;;9.30;99.90;;;;;;5124182;28;20119;-63
2021/05/29 04:05:14;;;;;;;22.73;10.60;;;9.40;99.90;;;;;;5124123;28;20016;-64
2021/05/29 04:07:42;;;;;;;24.48;11.63;;;9.40;99.90;;;;;;5124106;28;20072;-64
2021/05/29 04:10:16;;;;;;;24.40;12.23;;;9.50;99.90;;;;;;5105949;28;20422;-63
2021/05/29 04:12:44;;;;;;;22.10;10.88;;;9.50;99.90;;;;;;5124344;28;20365;-64
2021/05/29 04:15:14;;;;;;;21.85;11.05;;;9.60;99.90;;;;;;5123877;28;20029;-64
2021/05/29 04:17:42;;;;;;;21.45;11.40;;;9.60;99.90;;;;;;5120227;28;20032;-64
2021/05/29 04:20:12;;;;;;;30.10;12.48;;;9.70;99.90;;;;;;5119802;28;20323;-64
2021/05/29 04:22:39;;;;;;;23.00;12.07;;;9.70;99.90;;;;;;5119863;28;20319;-64
2021/05/29 04:25:09;;;;;;;24.05;11.43;;;9.70;99.90;;;;;;5101619;28;20064;-64
2021/05/29 04:27:37;;;;;;;24.77;10.88;;;9.70;99.90;;;;;;5119828;28;20051;-64
2021/05/29 04:30:11;;;;;;;20.70;11.23;;;9.80;99.90;;;;;;5119593;28;20315;-64
2021/05/29 04:32:39;;;;;;;21.48;11.00;;;9.80;99.90;;;;;;5120069;28;20024;-65
2021/05/29 04:35:08;;;;;;;21.02;11.18;;;9.80;99.90;;;;;;5101848;28;20111;-64
2021/05/29 04:37:38;;;;;;;19.92;10.77;;;9.80;99.90;;;;;;5120152;28;20035;-63
2021/05/29 04:40:08;;;;;;;22.83;10.52;;;9.90;99.90;;;;;;5120381;28;20110;-64
2021/05/29 04:42:36;;;;;;;19.02;10.15;;;9.90;99.90;;;;;;5102170;28;20020;-63
2021/05/29 04:45:07;;;;;;;22.30;10.32;;;9.90;99.90;;;;;;5120800;28;20145;-63
2021/05/29 04:47:36;;;;;;;21.52;11.05;;;10.00;99.90;;;;;;5102373;28;20027;-64
2021/05/29 04:50:07;;;;;;;17.45;10.50;;;10.00;99.90;;;;;;5120797;28;20375;-63
2021/05/29 04:52:36;;;;;;;20.38;10.80;;;10.00;99.90;;;;;;5120052;28;20026;-64
2021/05/29 04:55:05;;;;;;;18.88;10.55;;;10.10;99.90;;;;;;5102083;28;20114;-63
2021/05/29 04:57:33;;;;;;;17.20;10.15;;;10.10;99.90;;;;;;5119216;28;20027;-64
2021/05/29 05:00:01;;;;;;;20.85;10.32;;;10.20;99.90;;;;;;5097703;28;20040;-64
2021/05/29 05:02:28;;;;;;;21.95;9.95;;;10.20;99.90;;;;;;5097389;28;20032;-64
2021/05/29 05:04:56;;;;;;;18.70;9.60;;;10.30;99.90;;;;;;5097679;28;20012;-64
2021/05/29 05:07:24;;;;;;;20.00;10.13;;;10.40;99.90;;;;;;5098410;28;20024;-64
2021/05/29 05:09:51;;;;;;;16.45;10.13;;;10.40;99.90;;;;;;5099055;28;20016;-63
2021/05/29 05:12:19;;;;;;;19.48;9.65;;;10.40;99.90;;;;;;5099001;28;20020;-65
2021/05/29 05:14:46;;;;;;;19.10;9.80;;;10.50;99.90;;;;;;5098676;28;20323;-64
2021/05/29 05:17:14;;;;;;;19.77;9.70;;;10.50;99.90;;;;;;5098529;28;20052;-65
2021/05/29 05:19:41;;;;;;;16.65;9.15;;;10.60;99.90;;;;;;5098216;28;20055;-65
2021/05/29 05:22:09;;;;;;;13.63;8.60;;;10.60;99.90;;;;;;5098378;28;20058;-64
2021/05/29 05:24:37;;;;;;;19.92;9.70;;;10.70;99.90;;;;;;5099142;28;20026;-64
2021/05/29 05:27:05;;;;;;;19.13;10.85;;;10.70;99.90;;;;;;5099221;28;20415;-64
2021/05/29 05:29:32;;;;;;;18.20;9.38;;;10.70;99.90;;;;;;5098996;28;20114;-64
2021/05/29 05:32:00;;;;;;;16.38;8.52;;;10.80;99.90;;;;;;5115118;28;20028;-64
2021/05/29 05:34:29;;;;;;;15.75;8.18;;;10.80;99.90;;;;;;5099048;28;20024;-64
2021/05/29 05:36:58;;;;;;;19.95;9.90;;;10.80;99.90;;;;;;5114679;28;20020;-64
2021/05/29 05:39:26;;;;;;;15.77;8.98;;;10.90;99.90;;;;;;5098280;28;20104;-64
2021/05/29 05:41:54;;;;;;;17.85;8.90;;;10.90;99.90;;;;;;5097947;28;20028;-66
2021/05/29 05:44:23;;;;;;;17.67;8.13;;;11.00;99.90;;;;;;5097682;28;20435;-65
2021/05/29 05:46:50;;;;;;;13.40;7.90;;;11.00;99.90;;;;;;5113560;28;20020;-66
2021/05/29 05:49:18;;;;;;;17.02;8.43;;;11.00;99.90;;;;;;5098278;28;20012;-65
2021/05/29 05:51:46;;;;;;;14.80;7.40;;;11.10;99.90;;;;;;5098380;28;20097;-65
2021/05/29 05:54:14;;;;;;;14.85;7.43;;;11.00;99.90;;;;;;5098093;28;20031;-64
2021/05/29 05:56:43;;;;;;;17.95;7.63;;;11.10;99.90;;;;;;5097618;28;20038;-66
2021/05/29 05:59:11;;;;;;;14.93;7.53;;;11.10;99.90;;;;;;5098158;28;20095;-64
2021/05/29 06:01:39;;;;;;;13.82;7.05;;;11.00;99.90;;;;;;5118563;28;20039;-66
2021/05/29 06:04:07;;;;;;;15.43;6.15;;;11.10;99.90;;;;;;5118932;28;20055;-66
2021/05/29 06:06:34;;;;;;;11.23;6.43;;;11.10;99.90;;;;;;5118638;28;20025;-65
2021/05/29 06:09:03;;;;;;;10.55;6.32;;;11.10;99.90;;;;;;5118543;28;20027;-66
2021/05/29 06:11:31;;;;;;;10.60;6.10;;;11.10;99.90;;;;;;5119279;28;20027;-66
2021/05/29 06:19:17;;;;;;;9.45;6.00;;;11.10;99.90;;;;;;5118382;28;20384;-67
2021/05/29 06:21:48;;;;;;;12.27;6.93;;;11.10;99.90;;;;;;5118104;28;20019;-65
2021/05/29 06:24:20;;;;;;;19.00;7.80;;;11.10;99.90;;;;;;5117348;28;20020;-67
2021/05/29 06:26:49;;;;;;;11.32;6.80;;;11.10;99.90;;;;;;5117381;28;20073;-64
2021/05/29 06:29:18;;;;;;;14.02;7.22;;;11.10;99.90;;;;;;5117566;28;20047;-64
2021/05/29 06:31:46;;;;;;;13.05;6.95;;;11.10;99.90;;;;;;5117570;28;20023;-65
2021/05/29 06:34:15;;;;;;;10.13;5.53;;;11.10;99.90;;;;;;5117141;28;20027;-64
2021/05/29 06:36:42;;;;;;;12.60;5.95;;;11.20;99.90;;;;;;5099091;28;20024;-65
2021/05/29 06:39:10;;;;;;;14.27;7.25;;;11.30;99.90;;;;;;5117147;28;20077;-65
2021/05/29 06:41:40;;;;;;;12.70;5.95;;;11.30;99.90;;;;;;5116818;28;20034;-65
2021/05/29 06:44:08;;;;;;;12.15;5.97;;;11.30;99.90;;;;;;5118113;28;20027;-65
2021/05/29 06:46:36;;;;;;;13.95;7.00;;;11.30;99.90;;;;;;5118047;28;20019;-66
2021/05/29 06:49:04;;;;;;;10.00;5.82;;;11.30;99.90;;;;;;5117997;28;20095;-66
2021/05/29 06:51:44;;;;;;;11.60;5.68;;;11.30;99.90;;;;;;5118061;28;20027;-66
2021/05/29 06:59:44;;;;;;;12.60;7.00;;;11.30;99.90;;;;;;5118176;28;20462;-65
2021/05/29 07:02:11;;;;;;;12.85;7.53;;;11.30;99.90;;;;;;5117635;28;20430;-65
2021/05/29 07:04:39;;;;;;;11.77;6.57;;;11.30;99.90;;;;;;5117192;28;20300;-65
2021/05/29 07:07:07;;;;;;;11.90;6.85;;;11.40;99.90;;;;;;5116792;28;20324;-65
2021/05/29 07:09:35;;;;;;;13.27;7.35;;;11.40;99.90;;;;;;5118362;28;20031;-65
2021/05/29 07:12:03;;;;;;;15.48;7.78;;;11.40;99.90;;;;;;5117086;28;20031;-65
2021/05/29 07:14:32;;;;;;;14.65;8.05;;;11.40;99.90;;;;;;5117100;28;20027;-65
2021/05/29 07:17:03;;;;;;;14.80;7.60;;;11.40;99.90;;;;;;5117152;28;20103;-65
2021/05/29 07:19:31;;;;;;;18.80;8.10;;;11.50;99.90;;;;;;5116657;28;20330;-65
2021/05/29 07:21:59;;;;;;;12.13;7.35;;;11.50;99.90;;;;;;5116935;28;20081;-65
2021/05/29 07:24:27;;;;;;;14.27;8.48;;;11.50;99.90;;;;;;5118101;28;20043;-65
2021/05/29 07:26:55;;;;;;;14.75;7.85;;;11.60;99.90;;;;;;5117924;28;20048;-65
2021/05/29 07:29:24;;;;;;;14.32;7.90;;;11.60;99.90;;;;;;5117940;28;20078;-65
2021/05/29 07:31:52;;;;;;;13.95;7.72;;;11.70;99.90;;;;;;5117593;28;20027;-65
2021/05/29 07:34:20;;;;;;;14.55;8.05;;;11.70;99.90;;;;;;5117746;28;20047;-65
2021/05/29 07:36:47;;;;;;;17.90;7.85;;;11.80;99.90;;;;;;5117658;28;20035;-65
2021/05/29 07:39:16;;;;;;;15.07;8.40;;;11.90;99.90;;;;;;5117468;28;20023;-65
2021/05/29 07:41:44;;;;;;;13.77;8.38;;;11.90;99.90;;;;;;5117354;28;20077;-65
2021/05/29 07:44:12;;;;;;;14.75;8.07;;;12.00;99.90;;;;;;5098577;28;20068;-65
2021/05/29 07:46:39;;;;;;;15.70;8.80;;;12.00;99.90;;;;;;5116564;28;20028;-65
2021/05/29 07:49:08;;;;;;;14.30;8.90;;;12.10;99.90;;;;;;5098675;28;20027;-65
2021/05/29 07:51:36;;;;;;;18.52;10.13;;;12.20;99.90;;;;;;5116442;28;20122;-65
2021/05/29 07:54:06;;;;;;;14.23;7.18;;;12.20;99.90;;;;;;5119710;28;20023;-65
2021/05/29 07:56:33;;;;;;;12.90;7.95;;;12.30;99.90;;;;;;5120542;28;20051;-65
2021/05/29 07:59:06;;;;;;;11.68;7.40;;;12.30;99.90;;;;;;5120652;28;20027;-65
2021/05/29 08:01:35;;;;;;;14.88;7.75;;;12.30;99.90;;;;;;5082906;28;20047;-66
2021/05/29 08:04:03;;;;;;;13.73;7.85;;;12.40;99.90;;;;;;5100989;28;20016;-65
2021/05/29 08:06:35;;;;;;;16.30;9.25;;;12.40;99.90;;;;;;5082962;28;20422;-66
2021/05/29 08:09:05;;;;;;;14.80;9.85;;;12.40;99.90;;;;;;5100686;28;20332;-69
2021/05/29 08:11:35;;;;;;;16.98;9.20;;;12.50;99.90;;;;;;5100813;28;20027;-65
2021/05/29 08:14:06;;;;;;;13.93;8.23;;;12.50;99.90;;;;;;5100555;28;20034;-65
2021/05/29 08:16:34;;;;;;;21.60;9.93;;;12.60;99.90;;;;;;5100589;28;20028;-65
2021/05/29 08:19:02;;;;;;;17.48;9.75;;;12.70;99.90;;;;;;5100571;28;20107;-65
2021/05/29 08:21:30;;;;;;;14.15;9.45;;;12.80;99.90;;;;;;5100115;28;20389;-65
2021/05/29 08:23:57;;;;;;;13.63;8.38;;;12.90;99.90;;;;;;5100042;28;20070;-65
2021/05/29 08:26:25;;;;;;;16.00;8.80;;;13.00;99.90;;;;;;5099451;28;20370;-65
2021/05/29 08:28:54;;;;;;;14.90;9.43;;;13.00;99.90;;;;;;5100165;28;20073;-64
2021/05/29 08:31:22;;;;;;;21.02;12.07;;;13.10;99.90;;;;;;5099362;28;20020;-65
2021/05/29 08:33:52;;;;;;;16.13;9.05;;;13.10;99.90;;;;;;5099217;28;20028;-65
2021/05/29 08:36:19;;;;;;;16.42;9.38;;;13.20;99.90;;;;;;5099226;28;20301;-65
2021/05/29 08:38:48;;;;;;;15.68;8.95;;;13.20;99.90;;;;;;5099228;28;20149;-65
2021/05/29 08:41:16;;;;;;;14.23;9.55;;;13.20;99.90;;;;;;5098241;28;20028;-65
2021/05/29 08:43:45;;;;;;;12.88;8.77;;;13.20;99.90;;;;;;5099369;28;20099;-65
2021/05/29 08:46:13;;;;;;;19.27;10.75;;;13.20;99.90;;;;;;5098869;28;20021;-65
2021/05/29 08:48:41;;;;;;;18.77;10.18;;;13.10;99.90;;;;;;5099871;28;20028;-65
2021/05/29 08:51:13;;;;;;;16.92;10.27;;;13.10;99.90;;;;;;5099735;28;20020;-65
2021/05/29 08:53:52;;;;;;;17.48;9.73;;;13.10;99.90;;;;;;5099766;28;20028;-65
2021/05/29 08:56:25;;;;;;;16.13;9.35;;;13.00;99.90;;;;;;5099773;28;20035;-65
2021/05/29 08:58:53;;;;;;;16.63;10.70;;;13.00;99.90;;;;;;5100272;28;20081;-64
2021/05/29 09:01:22;;;;;;;18.88;10.75;;;13.00;99.90;;;;;;5115970;28;20548;-65
2021/05/29 09:04:01;;;;;;;23.90;11.60;;;12.90;99.90;;;;;;5118635;28;20026;-65
2021/05/29 09:06:32;;;;;;;16.38;10.23;;;12.90;99.90;;;;;;5119033;28;20016;-66
2021/05/29 09:09:04;;;;;;;21.08;10.45;;;12.90;99.90;;;;;;5118884;28;20016;-65
2021/05/29 09:12:03;;;;;;;17.20;10.27;;;12.80;99.90;;;;;;5101110;28;20130;-65
2021/05/29 09:14:37;;;;;;;19.08;11.27;;;12.90;99.90;;;;;;5119186;28;20020;-67
2021/05/29 09:17:17;;;;;;;16.98;10.15;;;12.90;99.90;;;;;;5101459;28;20023;-66
2021/05/29 09:20:08;;;;;;;17.48;10.13;;;12.90;99.90;;;;;;5118700;28;20330;-66
2021/05/29 09:22:39;;;;;;;13.68;9.05;;;13.00;99.90;;;;;;5118502;28;20047;-66
2021/05/29 09:25:16;;;;;;;16.00;8.93;;;13.00;99.90;;;;;;5119397;28;20038;-66
2021/05/29 09:28:00;;;;;;;16.70;9.18;;;13.00;99.90;;;;;;5119686;28;20483;-66
2021/05/29 09:30:51;;;;;;;15.38;9.63;;;13.00;99.90;;;;;;5120076;28;20066;-66
2021/05/29 09:33:26;;;;;;;15.82;9.13;;;13.10;99.90;;;;;;5119861;28;20073;-66
2021/05/29 09:36:09;;;;;;;14.13;8.47;;;13.10;99.90;;;;;;5101352;28;20051;-66
2021/05/29 09:38:43;;;;;;;15.25;9.05;;;13.20;99.90;;;;;;5119675;28;20030;-66
2021/05/29 09:41:45;;;;;;;12.10;8.23;;;13.20;99.90;;;;;;5119277;28;20071;-66
2021/05/29 09:44:14;;;;;;;14.13;8.00;;;13.20;99.90;;;;;;5118116;28;20023;-66
2021/05/29 09:46:53;;;;;;;12.63;8.48;;;13.10;99.90;;;;;;5118512;28;20055;-65
2021/05/29 09:49:25;;;;;;;13.10;8.10;;;13.10;99.90;;;;;;5100526;28;20030;-66
2021/05/29 09:51:53;;;;;;;15.98;8.60;;;13.10;99.90;;;;;;5117950;28;20470;-66
2021/05/29 09:54:26;;;;;;;13.57;8.13;;;13.10;99.90;;;;;;5117983;28;20441;-65
2021/05/29 09:57:03;;;;;;;14.82;7.95;;;13.10;99.90;;;;;;5118031;28;20031;-66
2021/05/29 09:59:30;;;;;;;13.35;7.47;;;13.10;99.90;;;;;;5099670;28;20374;-67
2021/05/29 10:01:59;;;;;;;11.55;6.80;;;13.20;99.90;;;;;;5117882;28;20034;-66
2021/05/29 10:04:40;;;;;;;14.57;7.70;;;13.40;99.90;;;;;;5118250;28;20047;-65
2021/05/29 10:07:13;;;;;;;11.13;6.45;;;13.50;99.90;;;;;;5119052;28;20077;-65
2021/05/29 10:09:42;;;;;;;12.98;7.47;;;13.60;99.90;;;;;;5118960;28;20024;-66
2021/05/29 10:12:11;;;;;;;13.75;6.47;;;13.60;99.90;;;;;;5100739;28;20415;-65
2021/05/29 10:14:40;;;;;;;11.90;7.22;;;13.70;99.90;;;;;;5118358;28;20031;-65
2021/05/29 10:17:11;;;;;;;11.32;6.15;;;13.80;99.90;;;;;;5118097;28;20054;-66
2021/05/29 10:19:44;;;;;;;13.25;6.60;;;13.90;99.90;;;;;;5118399;28;20023;-65
2021/05/29 10:22:17;;;;;;;13.60;6.30;;;14.00;99.90;;;;;;5118527;28;20023;-66
2021/05/29 10:24:46;;;;;;;10.27;6.45;;;14.00;99.90;;;;;;5117534;28;20022;-66
2021/05/29 10:27:25;;;;;;;13.43;7.15;;;14.10;99.90;;;;;;5118095;28;20421;-66
2021/05/29 10:29:58;;;;;;;10.85;6.35;;;14.20;99.90;;;;;;5099454;28;20016;-66
2021/05/29 10:32:27;;;;;;;12.13;6.75;;;14.20;99.90;;;;;;5117642;28;20099;-66
2021/05/29 10:35:01;;;;;;;11.18;6.25;;;14.20;99.90;;;;;;5117274;28;20035;-66
2021/05/29 10:37:30;;;;;;;10.35;6.10;;;14.20;99.90;;;;;;5117457;28;20024;-65
2021/05/29 10:40:22;;;;;;;11.98;7.05;;;14.10;99.90;;;;;;5117334;28;20030;-66
2021/05/29 10:43:13;;;;;;;11.05;6.82;;;14.10;99.90;;;;;;5117775;28;20024;-64
2021/05/29 10:45:53;;;;;;;12.07;6.38;;;14.10;99.90;;;;;;5118495;28;20020;-65
2021/05/29 10:48:26;;;;;;;10.40;6.68;;;14.00;99.90;;;;;;5119121;28;20020;-64
2021/05/29 10:53:37;;;;;;;11.45;5.95;;;13.90;99.90;;;;;;5118135;28;20016;-66
2021/05/29 10:56:17;;;;;;;11.80;6.85;;;13.90;99.90;;;;;;5118569;28;20093;-67
2021/05/29 10:59:00;;;;;;;12.15;7.05;;;13.90;99.90;;;;;;5118567;28;20475;-66
2021/05/29 11:01:45;;;;;;;14.35;6.88;;;13.90;99.90;;;;;;5117660;28;20075;-66
2021/05/29 11:04:20;;;;;;;10.98;6.85;;;13.80;99.90;;;;;;5117246;28;20084;-64
2021/05/29 11:06:53;;;;;;;16.40;6.95;;;13.80;99.90;;;;;;5117321;28;20016;-65
2021/05/29 11:09:27;;;;;;;11.05;6.38;;;13.90;99.90;;;;;;5116694;28;20023;-65
2021/05/29 11:11:58;;;;;;;13.18;7.60;;;14.00;99.90;;;;;;5117135;28;20080;-64
2021/05/29 11:14:49;;;;;;;12.55;7.13;;;14.00;99.90;;;;;;5116845;28;20031;-64
2021/05/29 11:17:23;;;;;;;13.80;7.78;;;14.00;99.90;;;;;;5117338;28;20080;-65
2021/05/29 11:20:15;;;;;;;11.85;7.40;;;14.10;99.90;;;;;;5116703;28;20088;-64
2021/05/29 11:22:50;;;;;;;12.82;6.93;;;14.10;99.90;;;;;;5116520;28;20023;-65
2021/05/29 11:25:23;;;;;;;9.65;6.03;;;14.30;99.90;;;;;;5116810;28;20026;-65
2021/05/29 11:27:51;;;;;;;10.15;6.03;;;14.40;99.90;;;;;;5103120;28;20024;-65
2021/05/29 11:30:26;;;;;;;12.00;6.53;;;14.50;99.90;;;;;;5121801;28;20361;-65
2021/05/29 11:33:00;;;;;;;13.25;7.18;;;14.50;99.90;;;;;;5103679;28;20442;-64
2021/05/29 11:35:45;;;;;;;10.82;7.25;;;14.60;99.90;;;;;;5122342;28;20016;-64
2021/05/29 11:38:37;;;;;;;14.52;7.55;;;14.60;99.90;;;;;;5121602;28;20024;-64
2021/05/29 11:41:11;;;;;;;11.20;7.15;;;14.60;99.90;;;;;;5121820;28;20020;-65
2021/05/29 11:43:50;;;;;;;11.88;6.47;;;14.70;99.90;;;;;;5121446;28;20023;-64
2021/05/29 11:46:23;;;;;;;9.23;6.05;;;14.70;99.90;;;;;;5120621;28;20055;-65
2021/05/29 11:48:59;;;;;;;10.38;5.78;;;14.70;99.90;;;;;;5120642;28;20122;-64
2021/05/29 11:51:30;;;;;;;8.88;5.95;;;14.60;99.90;;;;;;5120559;28;20023;-64
2021/05/29 11:54:15;;;;;;;9.75;5.80;;;14.60;99.90;;;;;;5120429;28;20023;-65
2021/05/29 11:56:45;;;;;;;10.80;5.95;;;14.60;99.90;;;;;;5120442;28;20054;-66
2021/05/29 11:59:18;;;;;;;13.38;5.85;;;14.80;99.90;;;;;;5120361;28;20126;-66
2021/05/29 12:01:48;;;;;;;8.70;5.95;;;14.90;99.90;;;;;;5120182;28;20071;-66
2021/05/29 12:04:27;;;;;;;13.05;5.80;;;15.00;99.90;;;;;;5120603;28;20019;-66
2021/05/29 12:06:59;;;;;;;11.73;5.57;;;15.10;99.90;;;;;;5120949;28;20375;-66
2021/05/29 12:09:38;;;;;;;10.02;5.57;;;15.20;99.90;;;;;;5121152;28;20084;-65
2021/05/29 12:12:12;;;;;;;8.40;5.30;;;15.30;99.90;;;;;;5121213;28;20411;-65
2021/05/29 12:14:41;;;;;;;9.10;5.13;;;15.40;99.90;;;;;;5120939;28;20055;-65
2021/05/29 12:17:12;;;;;;;10.60;4.82;;;15.60;99.90;;;;;;5121348;28;20027;-65
2021/05/29 12:19:53;;;;;;;8.73;5.25;;;15.80;98.70;;;;;;5121185;28;20297;-67
2021/05/29 12:22:31;;;;;;;10.32;5.28;;;15.70;99.30;;;;;;5120779;28;20125;-66
2021/05/29 12:25:09;;;;;;;9.75;4.93;;;15.80;98.70;;;;;;5120565;28;20027;-66
2021/05/29 12:27:43;;;;;;;7.28;4.63;;;15.80;98.60;;;;;;5119723;28;20024;-65
2021/05/29 12:30:14;;;;;;;7.53;4.80;;;16.00;98.40;;;;;;5119690;28;20024;-65
2021/05/29 12:32:48;;;;;;;9.45;5.43;;;16.00;97.60;;;;;;5119883;28;20031;-65
2021/05/29 12:35:35;;;;;;;9.75;5.72;;;16.10;97.00;;;;;;5119872;28;20449;-65
2021/05/29 12:38:20;;;;;;;8.30;4.75;;;16.10;96.90;;;;;;5118964;28;20028;-66
2021/05/29 12:41:00;;;;;;;9.70;6.18;;;16.20;97.50;;;;;;5119539;28;20051;-65
2021/05/29 12:43:29;;;;;;;11.52;6.28;;;16.40;96.70;;;;;;5120104;28;20028;-65
2021/05/29 12:45:57;;;;;;;11.40;6.05;;;16.60;96.80;;;;;;5119716;28;20053;-65
2021/05/29 12:48:24;;;;;;;8.75;5.95;;;16.60;95.80;;;;;;5102456;28;20126;-65
2021/05/29 12:53:38;;;;;;;10.20;6.57;;;16.90;95.20;;;;;;5120438;28;20016;-64
2021/05/29 12:56:16;;;;;;;12.07;7.00;;;17.00;95.30;;;;;;5120144;28;20099;-65
2021/05/29 12:59:01;;;;;;;10.00;6.38;;;17.10;94.40;;;;;;5120673;28;20399;-65
2021/05/29 13:09:52;;;;;;;9.82;6.10;;;17.50;93.40;;;;;;5119603;28;20413;-65
2021/05/29 13:12:21;;;;;;;11.35;6.30;;;17.60;93.10;;;;;;5119127;28;20051;-65
2021/05/29 13:14:50;;;;;;;11.50;6.50;;;17.50;91.80;;;;;;5118945;28;20049;-65
2021/05/29 13:17:26;;;;;;;9.98;6.30;;;17.40;92.10;;;;;;5100926;28;20114;-65
2021/05/29 13:19:58;;;;;;;7.75;6.03;;;17.50;92.10;;;;;;5118831;28;20073;-65
2021/05/29 13:22:35;;;;;;;8.75;5.18;;;17.60;92.10;;;;;;5119146;28;20367;-65
2021/05/29 13:25:16;;;;;;;9.45;5.93;;;17.60;92.10;;;;;;5118701;28;20020;-65